createdAt,value
2023-01-12T00:00:44.319Z,73.30
2023-01-12T00:03:20.503Z,73.20
2023-01-12T00:05:55.754Z,73.20
2023-01-12T00:08:46.144Z,73.00
2023-01-12T00:11:20.748Z,72.90
2023-01-12T00:18:18.773Z,72.80
2023-01-12T00:20:52.047Z,72.60
2023-01-12T00:23:22.238Z,72.80
2023-01-12T00:25:54.513Z,72.80
2023-01-12T00:28:23.271Z,72.80
2023-01-12T00:30:55.145Z,72.90
2023-01-12T00:33:25.709Z,72.80
2023-01-12T00:35:54.313Z,72.90
2023-01-12T00:38:32.799Z,73.70
2023-01-12T00:41:07.278Z,72.80
2023-01-12T00:43:55.836Z,72.50
2023-01-12T00:46:42.288Z,72.80
2023-01-12T00:49:12.767Z,72.50
2023-01-12T00:51:46.324Z,72.80
2023-01-12T00:54:15.814Z,72.70
2023-01-12T00:56:44.639Z,72.70
2023-01-12T00:59:13.457Z,72.70
2023-01-12T01:01:42.608Z,72.70
2023-01-12T01:04:12.828Z,72.80
2023-01-12T01:06:45.046Z,72.80
2023-01-12T01:09:14.234Z,72.80
2023-01-12T01:11:46.157Z,72.60
2023-01-12T01:14:14.814Z,72.80
2023-01-12T01:16:46.508Z,72.80
2023-01-12T01:19:19.626Z,72.80
2023-01-12T01:21:48.556Z,72.90
2023-01-12T01:24:20.433Z,72.70
2023-01-12T01:26:51.766Z,72.20
2023-01-12T01:29:22.445Z,72.50
2023-01-12T01:31:51.176Z,72.60
2023-01-12T01:34:24.245Z,72.70
2023-01-12T01:36:53.212Z,72.50
2023-01-12T01:39:22.071Z,72.70
2023-01-12T01:41:50.866Z,72.40
2023-01-12T01:44:56.412Z,72.50
2023-01-12T01:47:36.051Z,72.00
2023-01-12T01:50:14.017Z,72.00
2023-01-12T01:52:46.539Z,71.90
2023-01-12T01:55:22.594Z,72.10
2023-01-12T01:57:57.237Z,71.90
2023-01-12T02:00:27.299Z,71.90
2023-01-12T02:03:01.093Z,72.00
2023-01-12T02:05:31.560Z,72.60
2023-01-12T02:08:07.047Z,71.80
2023-01-12T02:10:41.217Z,71.60
2023-01-12T02:13:26.895Z,71.70
2023-01-12T02:16:21.988Z,71.50
2023-01-12T02:18:59.420Z,71.20
2023-01-12T02:22:06.780Z,70.90
2023-01-12T02:25:08.233Z,70.80
2023-01-12T02:27:58.353Z,70.70
2023-01-12T02:31:16.652Z,70.70
2023-01-12T02:34:01.846Z,70.60
2023-01-12T02:36:38.629Z,70.50
2023-01-12T02:39:19.003Z,70.50
2023-01-12T02:42:13.217Z,70.50
2023-01-12T02:44:51.831Z,70.40
2023-01-12T02:47:29.384Z,70.60
2023-01-12T02:50:03.415Z,70.50
2023-01-12T02:52:35.033Z,70.30
2023-01-12T02:55:06.297Z,70.40
2023-01-12T02:57:38.393Z,70.30
2023-01-12T03:00:09.701Z,70.00
2023-01-12T03:02:42.802Z,70.10
2023-01-12T03:05:13.564Z,70.20
2023-01-12T03:07:54.116Z,70.30
2023-01-12T03:10:54.149Z,70.10
2023-01-12T03:13:25.675Z,69.90
2023-01-12T03:15:57.443Z,70.00
2023-01-12T03:18:33.991Z,70.00
2023-01-12T03:21:08.100Z,69.90
2023-01-12T03:23:45.281Z,69.90
2023-01-12T03:26:16.035Z,69.90
2023-01-12T03:28:51.317Z,70.00
2023-01-12T03:31:23.035Z,70.00
2023-01-12T03:33:57.265Z,69.80
2023-01-12T03:36:47.352Z,69.90
2023-01-12T03:39:36.770Z,69.80
2023-01-12T03:42:12.036Z,69.90
2023-01-12T03:44:47.149Z,69.80
2023-01-12T03:47:22.200Z,69.90
2023-01-12T03:49:57.498Z,69.90
2023-01-12T03:52:31.404Z,69.70
2023-01-12T03:55:02.109Z,70.40
2023-01-12T03:57:32.797Z,69.80
2023-01-12T04:00:04.608Z,69.70
2023-01-12T04:02:41.202Z,69.50
2023-01-12T04:05:14.806Z,69.60
2023-01-12T04:07:48.326Z,69.10
2023-01-12T04:10:19.697Z,69.30
2023-01-12T04:12:50.891Z,69.20
2023-01-12T04:15:19.847Z,69.40
2023-01-12T04:17:50.814Z,69.20
2023-01-12T04:20:20.053Z,68.90
2023-01-12T04:22:49.297Z,68.80
2023-01-12T04:25:19.712Z,68.90
2023-01-12T04:27:53.891Z,68.40
2023-01-12T04:30:27.561Z,68.80
2023-01-12T04:32:57.259Z,68.50
2023-01-12T04:35:26.501Z,68.70
2023-01-12T04:37:56.923Z,68.60
2023-01-12T04:40:26.363Z,68.90
2023-01-12T04:43:08.553Z,68.90
2023-01-12T04:45:39.410Z,68.70
2023-01-12T04:48:10.807Z,68.60
2023-01-12T04:50:41.124Z,68.50
2023-01-12T04:53:13.370Z,68.60
2023-01-12T04:55:43.537Z,68.70
2023-01-12T04:58:12.328Z,68.50
2023-01-12T05:00:41.201Z,68.40
2023-01-12T05:03:13.913Z,68.60
2023-01-12T05:05:44.866Z,67.40
2023-01-12T05:08:33.177Z,67.40
2023-01-12T05:11:03.690Z,67.30
2023-01-12T05:13:38.324Z,67.40
2023-01-12T05:16:12.737Z,67.30
2023-01-12T05:18:42.005Z,66.90
2023-01-12T05:21:10.941Z,67.30
2023-01-12T05:23:43.073Z,67.20
2023-01-12T05:26:17.338Z,67.10
2023-01-12T05:28:50.545Z,66.90
2023-01-12T05:31:23.092Z,66.90
2023-01-12T05:33:52.167Z,67.20
2023-01-12T05:36:22.087Z,67.40
2023-01-12T05:38:52.126Z,67.30
2023-01-12T05:41:23.149Z,67.10
2023-01-12T05:43:50.802Z,67.20
2023-01-12T05:46:21.422Z,67.10
2023-01-12T05:48:50.875Z,67.00
2023-01-12T05:51:23.113Z,67.10
2023-01-12T05:53:53.099Z,67.20
2023-01-12T05:56:23.418Z,67.00
2023-01-12T05:58:52.675Z,66.90
2023-01-12T06:01:22.438Z,66.90
2023-01-12T06:03:57.731Z,67.00
2023-01-12T06:06:27.812Z,67.40
2023-01-12T06:09:00.507Z,66.80
2023-01-12T06:11:45.947Z,66.80
2023-01-12T06:14:14.350Z,66.80
2023-01-12T06:16:49.419Z,66.90
2023-01-12T06:19:17.794Z,66.90
2023-01-12T06:21:46.122Z,67.00
2023-01-12T06:24:15.850Z,67.00
2023-01-12T06:26:45.369Z,67.00
2023-01-12T06:29:13.980Z,66.90
2023-01-12T06:31:44.161Z,67.10
2023-01-12T06:34:13.241Z,67.10
2023-01-12T06:36:44.812Z,66.90
2023-01-12T06:39:13.591Z,67.20
2023-01-12T06:42:00.627Z,67.00
2023-01-12T06:44:28.839Z,67.00
2023-01-12T06:46:57.080Z,67.10
2023-01-12T06:49:25.356Z,67.30
2023-01-12T06:51:53.567Z,67.10
2023-01-12T06:54:22.297Z,67.10
2023-01-12T06:56:51.936Z,67.10
2023-01-12T06:59:20.182Z,67.10
2023-01-12T07:01:48.772Z,67.20
2023-01-12T07:04:17.128Z,67.10
2023-01-12T07:06:45.649Z,68.00
2023-01-12T07:09:13.926Z,67.20
2023-01-12T07:11:42.089Z,67.20
2023-01-12T07:14:11.912Z,67.30
2023-01-12T07:16:41.014Z,67.30
2023-01-12T07:19:09.341Z,67.30
2023-01-12T07:21:37.438Z,67.40
2023-01-12T07:24:05.760Z,67.30
2023-01-12T07:26:33.988Z,67.10
2023-01-12T07:29:02.414Z,67.30
2023-01-12T07:31:32.316Z,67.30
2023-01-12T07:34:00.477Z,67.30
2023-01-12T07:36:28.763Z,67.10
2023-01-12T07:38:57.047Z,67.20
2023-01-12T07:41:42.416Z,67.10
2023-01-12T07:44:14.455Z,67.20
2023-01-12T07:46:44.181Z,67.20
2023-01-12T07:49:12.375Z,67.20
2023-01-12T07:51:40.913Z,67.10
2023-01-12T07:54:11.515Z,66.90
2023-01-12T07:56:39.664Z,66.80
2023-01-12T07:59:07.965Z,67.00
2023-01-12T08:01:38.454Z,67.00
2023-01-12T08:04:08.603Z,66.80
2023-01-12T08:06:37.000Z,66.60
2023-01-12T08:09:05.231Z,66.20
2023-01-12T08:11:33.382Z,66.30
2023-01-12T08:14:05.457Z,66.40
2023-01-12T08:16:37.141Z,66.10
2023-01-12T08:19:09.450Z,65.80
2023-01-12T08:21:46.040Z,65.80
2023-01-12T08:24:42.442Z,65.80
2023-01-12T08:27:11.592Z,65.50
2023-01-12T08:29:43.997Z,65.70
2023-01-12T08:32:14.264Z,65.60
2023-01-12T08:34:46.503Z,65.60
2023-01-12T08:37:17.418Z,65.60
2023-01-12T08:39:47.236Z,65.70
2023-01-12T08:42:15.433Z,65.40
2023-01-12T08:44:43.832Z,65.10
2023-01-12T08:47:19.261Z,65.10
2023-01-12T08:49:49.171Z,65.00
2023-01-12T08:52:17.985Z,65.10
2023-01-12T08:54:56.971Z,65.20
2023-01-12T08:57:28.268Z,65.10
2023-01-12T08:59:57.742Z,65.10
2023-01-12T09:02:27.431Z,64.80
2023-01-12T09:04:57.289Z,64.80
2023-01-12T09:07:25.477Z,64.70
2023-01-12T09:09:53.728Z,64.80
2023-01-12T09:12:26.969Z,64.70
2023-01-12T09:14:55.214Z,64.40
2023-01-12T09:17:24.138Z,64.30
2023-01-12T09:19:52.748Z,64.50
2023-01-12T09:22:23.193Z,64.30
2023-01-12T09:24:51.599Z,64.20
2023-01-12T09:27:19.876Z,64.00
2023-01-12T09:29:48.337Z,63.90
2023-01-12T09:32:29.096Z,63.60
2023-01-12T09:35:04.343Z,64.10
2023-01-12T09:37:34.011Z,63.70
2023-01-12T09:40:04.524Z,63.60
2023-01-12T09:42:50.043Z,63.80
2023-01-12T09:45:40.819Z,63.70
2023-01-12T09:48:11.825Z,63.50
2023-01-12T09:50:43.422Z,63.30
2023-01-12T09:53:19.139Z,63.00
2023-01-12T09:55:52.934Z,62.90
2023-01-12T09:58:37.716Z,62.80
2023-01-12T10:01:24.031Z,62.70
2023-01-12T10:17:52.375Z,62.50
2023-01-12T10:20:39.620Z,62.30
2023-01-12T10:26:37.757Z,62.10
2023-01-12T10:29:24.859Z,61.90
2023-01-12T10:39:02.091Z,61.60
2023-01-12T10:51:52.666Z,61.80
2023-01-12T11:17:52.033Z,61.00
2023-01-12T11:20:32.193Z,61.60
2023-01-12T11:23:04.111Z,60.90
2023-01-12T11:25:39.488Z,61.20
2023-01-12T11:28:19.436Z,61.30
2023-01-12T11:30:56.997Z,61.00
2023-01-12T11:33:31.605Z,61.50
2023-01-12T11:36:10.532Z,61.40
2023-01-12T11:38:43.861Z,61.30
2023-01-12T11:41:21.022Z,61.50
2023-01-12T11:44:00.225Z,61.30
2023-01-12T11:46:35.744Z,61.30
2023-01-12T11:49:15.877Z,61.60
2023-01-12T11:51:45.011Z,61.90
2023-01-12T11:54:17.375Z,62.30
2023-01-12T11:57:10.723Z,62.60
2023-01-12T11:59:47.810Z,63.20
2023-01-12T12:02:33.287Z,63.50
2023-01-12T12:05:13.311Z,64.00
2023-01-12T12:07:55.959Z,64.30
2023-01-12T12:10:32.049Z,64.80
2023-01-12T12:13:36.797Z,65.00
2023-01-12T12:16:25.027Z,65.50
2023-01-12T12:19:25.038Z,65.70
2023-01-12T12:22:04.953Z,65.90
2023-01-12T12:24:52.820Z,66.00
2023-01-12T12:27:37.275Z,66.10
2023-01-12T12:30:24.229Z,66.30
2023-01-12T12:33:00.924Z,66.50
2023-01-12T12:35:45.204Z,66.70
2023-01-12T12:38:32.117Z,66.70
2023-01-12T12:41:34.354Z,67.00
2023-01-12T12:44:32.643Z,67.00
2023-01-12T12:47:10.646Z,67.10
2023-01-12T12:49:41.562Z,67.30
2023-01-12T12:52:13.671Z,67.60
2023-01-12T12:54:44.459Z,67.60
2023-01-12T12:57:13.725Z,68.00
2023-01-12T12:59:56.897Z,68.20
2023-01-12T13:02:41.008Z,68.70
2023-01-12T13:05:11.138Z,69.10
2023-01-12T13:07:45.449Z,69.20
2023-01-12T13:10:31.669Z,69.20
2023-01-12T13:13:04.197Z,69.60
2023-01-12T13:15:37.321Z,69.60
2023-01-12T13:18:07.119Z,69.90
2023-01-12T13:20:55.898Z,70.10
2023-01-12T13:24:17.769Z,70.30
2023-01-12T13:26:52.329Z,70.50
2023-01-12T13:29:50.784Z,70.50
2023-01-12T13:32:53.435Z,70.60
2023-01-12T13:35:57.597Z,70.60
2023-01-12T13:38:37.471Z,70.60
2023-01-12T13:41:34.886Z,70.60
2023-01-12T13:44:17.526Z,70.70
2023-01-12T13:46:48.396Z,70.70
2023-01-12T13:49:29.500Z,70.80
2023-01-12T13:52:00.671Z,70.80
2023-01-12T13:54:29.703Z,70.90
2023-01-12T13:57:01.422Z,71.10
2023-01-12T13:59:32.125Z,71.10
2023-01-12T14:02:03.619Z,71.20
2023-01-12T14:04:58.967Z,71.30
2023-01-12T14:07:47.240Z,71.30
2023-01-12T14:10:28.898Z,71.30
2023-01-12T14:13:43.892Z,71.30
2023-01-12T14:16:36.032Z,71.40
2023-01-12T14:19:22.021Z,71.50
2023-01-12T14:21:58.481Z,71.40
2023-01-12T14:24:27.924Z,71.60
2023-01-12T14:26:56.545Z,71.60
2023-01-12T14:29:25.311Z,71.90
2023-01-12T14:31:55.625Z,71.90
2023-01-12T14:34:32.541Z,72.00
2023-01-12T14:37:02.647Z,72.10
2023-01-12T14:39:37.709Z,72.10
2023-01-12T14:42:34.445Z,72.00
2023-01-12T14:45:39.624Z,72.20
2023-01-12T14:48:32.441Z,72.10
2023-01-12T14:51:18.778Z,72.50
2023-01-12T14:54:03.245Z,72.20
2023-01-12T15:00:24.551Z,72.40
2023-01-12T15:02:55.548Z,72.50
2023-01-12T15:05:43.506Z,72.60
2023-01-12T15:08:27.033Z,72.60
2023-01-12T15:11:09.865Z,72.60
2023-01-12T15:13:39.188Z,72.70
2023-01-12T15:16:27.717Z,72.70
2023-01-12T15:19:17.283Z,72.90
2023-01-12T15:22:04.979Z,73.00
2023-01-12T15:24:54.286Z,72.90
2023-01-12T15:27:24.754Z,72.80
2023-01-12T15:29:55.074Z,73.00
2023-01-12T15:32:46.758Z,73.20
2023-01-12T15:35:23.831Z,73.20
2023-01-12T15:38:01.565Z,73.00
2023-01-12T15:40:49.007Z,73.20
2023-01-12T15:43:18.897Z,73.40
2023-01-12T15:45:49.095Z,73.50
2023-01-12T15:48:18.212Z,73.30
2023-01-12T15:50:47.688Z,73.50
2023-01-12T15:56:57.125Z,73.50
2023-01-12T15:59:44.426Z,73.20
2023-01-12T16:02:57.054Z,72.90
2023-01-12T16:05:28.689Z,72.90
2023-01-12T16:08:13.067Z,73.20
2023-01-12T16:11:01.849Z,73.10
2023-01-12T16:13:31.637Z,72.90
2023-01-12T16:16:03.926Z,73.10
2023-01-12T16:18:33.254Z,73.20
2023-01-12T16:21:20.195Z,73.20
2023-01-12T16:23:49.096Z,73.00
2023-01-12T16:26:25.096Z,73.30
2023-01-12T16:28:54.186Z,73.20
2023-01-12T16:31:23.050Z,73.00
2023-01-12T16:33:57.007Z,73.10
2023-01-12T16:36:25.755Z,73.20
2023-01-12T16:39:13.541Z,73.00
2023-01-12T16:41:54.541Z,73.00
2023-01-12T16:44:26.293Z,73.00
2023-01-12T16:47:06.492Z,73.00
2023-01-12T16:49:42.644Z,73.00
2023-01-12T16:52:39.956Z,73.20
2023-01-12T16:55:16.030Z,72.70
2023-01-12T16:58:39.295Z,73.00
2023-01-12T17:01:38.263Z,72.70
2023-01-12T17:04:47.952Z,72.60
2023-01-12T17:07:19.134Z,72.80
2023-01-12T17:09:48.843Z,72.90
2023-01-12T17:12:31.765Z,72.70
2023-01-12T17:15:15.372Z,72.50
2023-01-12T17:17:45.890Z,72.40
2023-01-12T17:20:24.216Z,72.20
2023-01-12T17:23:04.958Z,72.00
2023-01-12T17:25:37.368Z,72.00
2023-01-12T17:28:09.353Z,71.80
2023-01-12T17:30:52.133Z,71.70
2023-01-12T17:33:31.761Z,71.70
2023-01-12T17:36:37.407Z,71.90
2023-01-12T17:39:27.152Z,71.60
2023-01-12T17:42:31.474Z,71.60
2023-01-12T17:45:09.619Z,71.70
2023-01-12T17:48:13.607Z,71.60
2023-01-12T17:50:54.385Z,71.20
2023-01-12T17:53:38.573Z,71.10
2023-01-12T17:56:26.061Z,71.20
2023-01-12T17:59:37.911Z,71.10
2023-01-12T18:03:16.616Z,71.00
2023-01-12T18:06:26.467Z,71.00
2023-01-12T18:10:02.910Z,71.00
2023-01-12T18:13:09.506Z,70.50
2023-01-12T18:16:54.750Z,70.80
2023-01-12T19:10:16.670Z,70.30
2023-01-12T20:34:16.178Z,70.00
2023-01-12T20:37:00.254Z,69.90
2023-01-12T20:39:58.204Z,70.40
2023-01-12T20:42:46.138Z,70.00
2023-01-12T20:45:28.007Z,70.30
2023-01-12T20:48:50.948Z,70.20
2023-01-12T20:51:43.831Z,69.80
2023-01-12T20:54:37.205Z,70.00
2023-01-12T20:57:20.651Z,70.00
2023-01-12T21:03:09.530Z,69.70
2023-01-12T21:09:06.713Z,69.40
2023-01-12T21:12:45.586Z,70.00
2023-01-12T21:42:46.836Z,68.10
2023-01-12T21:49:17.651Z,68.00
2023-01-12T21:52:01.728Z,68.00
2023-01-12T21:54:47.902Z,68.00
2023-01-12T21:57:34.109Z,68.30
2023-01-12T22:00:21.739Z,68.10
2023-01-12T22:02:52.036Z,67.90
2023-01-12T22:05:32.775Z,67.90
2023-01-12T22:08:15.120Z,67.90
2023-01-12T22:14:36.680Z,67.50
2023-01-12T22:17:27.830Z,67.90
2023-01-12T22:20:08.407Z,67.20
2023-01-12T22:22:40.519Z,67.40
2023-01-12T22:27:04.105Z,67.20
2023-01-12T22:28:36.931Z,67.10
2023-01-12T22:31:27.467Z,67.20
2023-01-12T22:37:09.597Z,67.10
2023-01-12T22:39:40.193Z,67.20
2023-01-12T22:42:48.902Z,67.30
2023-01-12T22:45:34.738Z,67.00
2023-01-12T22:48:19.203Z,66.90
2023-01-12T22:50:57.113Z,66.80
2023-01-12T22:53:39.672Z,66.60
2023-01-12T22:56:30.725Z,66.70
2023-01-12T22:59:06.163Z,66.80
2023-01-12T23:01:46.938Z,66.70
2023-01-12T23:04:23.211Z,66.90
2023-01-12T23:07:13.358Z,66.60
2023-01-12T23:10:10.441Z,66.60
2023-01-12T23:13:03.564Z,66.80
2023-01-12T23:15:46.002Z,66.60
